Time;durP1;ratioP1;P1;durP2;ratioP2;P2;SDS_P1;SDS_P2;PMS_P1;PMS_P2;Temp;Humidity;BMP_temperature;BMP_pressure;BME280_temperature;BME280_humidity;BME280_pressure;Samples;Min_cycle;Max_cycle;Signal;HPM_P1;HPM_P2
2023/08/16 00:00:54;;;;;;;5.63;3.10;;;;;;;21.61;100.00;101803.50;5261059;28;20027;-76
2023/08/16 00:03:25;;;;;;;4.53;2.97;;;;;;;21.54;100.00;101802.56;5267001;28;20048;-76
2023/08/16 00:05:57;;;;;;;5.10;2.90;;;;;;;21.57;100.00;101804.06;5262225;28;20067;-76
2023/08/16 00:08:28;;;;;;;7.40;3.23;;;;;;;21.53;100.00;101803.56;5264836;28;20112;-75
2023/08/16 00:10:59;;;;;;;4.63;3.27;;;;;;;21.49;100.00;101804.94;5263367;28;20028;-76
2023/08/16 00:13:32;;;;;;;5.13;3.33;;;;;;;21.55;100.00;101811.38;5259797;28;20029;-75
2023/08/16 00:16:03;;;;;;;5.20;3.22;;;;;;;21.44;100.00;101807.31;5264253;28;20029;-77
2023/08/16 00:18:34;;;;;;;4.97;2.87;;;;;;;21.47;100.00;101806.94;5265586;28;20039;-75
2023/08/16 00:21:06;;;;;;;6.00;3.30;;;;;;;21.45;100.00;101808.97;5261483;28;20462;-76
2023/08/16 00:23:37;;;;;;;7.03;3.17;;;;;;;21.45;100.00;101803.66;5261131;28;20032;-76
2023/08/16 00:26:08;;;;;;;5.13;2.90;;;;;;;21.42;100.00;101809.31;5229494;28;20032;-76
2023/08/16 00:28:39;;;;;;;5.33;3.23;;;;;;;21.35;100.00;101805.72;5260203;28;20044;-76
2023/08/16 00:31:11;;;;;;;5.37;3.00;;;;;;;21.42;100.00;101806.66;5269364;28;20166;-75
2023/08/16 00:33:42;;;;;;;6.13;3.60;;;;;;;21.26;100.00;101804.09;5264333;28;20111;-75
2023/08/16 00:36:14;;;;;;;5.57;3.43;;;;;;;21.32;100.00;101811.34;5262746;28;20070;-75
2023/08/16 00:38:45;;;;;;;6.57;3.63;;;;;;;21.20;100.00;101799.44;5266403;28;20560;-75
2023/08/16 00:41:17;;;;;;;6.83;3.57;;;;;;;21.26;100.00;101812.09;5263741;28;20024;-78
2023/08/16 00:43:48;;;;;;;5.33;3.53;;;;;;;21.27;100.00;101808.41;5266942;28;20036;-75
2023/08/16 00:46:20;;;;;;;4.83;3.30;;;;;;;21.15;100.00;101815.97;5265425;28;20040;-77
2023/08/16 00:48:51;;;;;;;7.57;3.47;;;;;;;21.02;100.00;101821.84;5261412;28;20045;-75
2023/08/16 00:51:23;;;;;;;4.57;3.70;;;;;;;20.86;100.00;101814.78;5262510;28;20463;-76
2023/08/16 00:53:54;;;;;;;5.03;3.70;;;;;;;20.86;100.00;101829.94;5266750;28;20586;-75
2023/08/16 00:56:26;;;;;;;11.33;4.53;;;;;;;20.74;100.00;101818.03;5254828;28;20083;-74
2023/08/16 00:58:57;;;;;;;6.23;3.60;;;;;;;20.69;100.00;101823.88;5264599;28;20033;-74
2023/08/16 01:01:29;;;;;;;11.33;4.43;;;;;;;20.60;100.00;101828.38;5261159;28;20044;-74
2023/08/16 01:04:00;;;;;;;5.40;3.93;;;;;;;20.56;100.00;101821.75;5263425;28;20032;-75
2023/08/16 01:06:32;;;;;;;4.57;3.63;;;;;;;20.61;100.00;101826.56;5260121;28;20482;-75
2023/08/16 01:09:03;;;;;;;6.07;3.33;;;;;;;20.63;100.00;101840.53;5264370;28;20033;-76
2023/08/16 01:11:58;;;;;;;6.53;3.53;;;;;;;20.93;100.00;101838.91;5265803;28;20672;-74
2023/08/16 01:14:44;;;;;;;5.03;3.72;;;;;;;20.82;100.00;101834.78;5260667;28;20060;-75
2023/08/16 01:17:16;;;;;;;5.85;3.60;;;;;;;20.63;100.00;101832.53;5261853;28;20509;-75
2023/08/16 01:19:49;;;;;;;5.40;4.17;;;;;;;20.67;100.00;101838.34;5260900;28;20056;-77
2023/08/16 01:22:34;;;;;;;6.63;4.07;;;;;;;20.87;100.00;101840.44;5263756;28;20032;-76
2023/08/16 01:25:44;;;;;;;5.13;3.72;;;;;;;20.77;100.00;101849.63;5254475;28;20699;-75
2023/08/16 01:28:18;;;;;;;6.00;3.47;;;;;;;20.60;100.00;101859.50;5216009;28;20072;-75
2023/08/16 01:30:49;;;;;;;7.30;3.42;;;;;;;20.48;100.00;101844.88;5258314;28;20025;-75
2023/08/16 01:33:20;;;;;;;7.13;3.83;;;;;;;20.50;100.00;101849.06;5258510;28;20036;-75
2023/08/16 01:35:52;;;;;;;4.40;3.60;;;;;;;20.48;100.00;101858.19;5267428;28;20055;-75
2023/08/16 01:38:25;;;;;;;6.50;3.33;;;;;;;20.47;100.00;101853.88;5266146;28;20021;-78
2023/08/16 01:41:15;;;;;;;7.07;3.10;;;;;;;20.56;100.00;101859.00;5263646;28;20040;-75
2023/08/16 01:43:47;;;;;;;5.30;3.35;;;;;;;20.46;100.00;101862.88;5259136;28;20429;-74
2023/08/16 01:46:20;;;;;;;6.78;3.45;;;;;;;20.49;100.00;101852.72;5258959;28;20634;-75
2023/08/16 01:48:53;;;;;;;5.10;3.25;;;;;;;20.48;100.00;101851.03;5260081;28;20067;-77
2023/08/16 01:51:25;;;;;;;6.07;3.72;;;;;;;20.44;100.00;101848.88;5261050;28;20430;-75
2023/08/16 01:53:56;;;;;;;5.67;4.00;;;;;;;20.48;100.00;101851.03;5264186;28;20025;-74
2023/08/16 01:56:27;;;;;;;6.23;3.60;;;;;;;20.45;100.00;101855.84;5262733;28;20036;-74
2023/08/16 01:58:59;;;;;;;7.43;3.53;;;;;;;20.40;100.00;101851.06;5261161;28;20027;-76
2023/08/16 02:01:30;;;;;;;5.83;4.03;;;;;;;20.40;100.00;101853.72;5265043;28;20054;-74
2023/08/16 02:04:01;;;;;;;7.10;3.97;;;;;;;20.44;100.00;101855.03;5266399;28;20040;-74
2023/08/16 02:06:32;;;;;;;6.60;3.83;;;;;;;20.44;100.00;101844.38;5259251;28;20085;-74
2023/08/16 02:09:04;;;;;;;7.23;3.73;;;;;;;20.41;100.00;101855.38;5262162;28;20382;-75
2023/08/16 02:11:36;;;;;;;4.93;3.33;;;;;;;20.35;100.00;101856.88;5266972;28;20359;-75
2023/08/16 02:14:07;;;;;;;6.13;3.80;;;;;;;20.32;100.00;101867.88;5260492;28;20127;-74
2023/08/16 02:16:38;;;;;;;7.17;4.13;;;;;;;20.24;100.00;101867.06;5265917;28;20024;-73
2023/08/16 02:19:10;;;;;;;6.38;4.32;;;;;;;20.22;100.00;101861.88;5259659;28;20036;-74
2023/08/16 02:21:41;;;;;;;6.67;4.17;;;;;;;20.23;100.00;101860.06;5258556;28;20512;-75
2023/08/16 02:24:12;;;;;;;5.70;4.13;;;;;;;20.22;100.00;101861.06;5264542;28;20029;-75
2023/08/16 02:26:44;;;;;;;7.20;3.90;;;;;;;20.22;100.00;101861.06;5257042;28;20017;-77
2023/08/16 02:29:15;;;;;;;6.20;4.47;;;;;;;20.26;100.00;101857.06;5256705;28;20036;-74
2023/08/16 02:31:46;;;;;;;7.88;4.47;;;;;;;20.16;100.00;101849.28;5260285;28;20020;-73
2023/08/16 02:34:17;;;;;;;5.97;4.37;;;;;;;20.21;100.00;101852.25;5256431;28;20043;-74
2023/08/16 02:36:49;;;;;;;4.80;3.97;;;;;;;20.11;100.00;101857.75;5260799;28;20501;-74
2023/08/16 02:39:20;;;;;;;8.17;4.10;;;;;;;20.20;100.00;101863.06;5257809;28;20021;-74
2023/08/16 02:41:53;;;;;;;5.10;4.50;;;;;;;20.29;100.00;101851.41;5262519;28;20056;-74
2023/08/16 02:44:25;;;;;;;9.63;4.32;;;;;;;20.16;100.00;101843.97;5265326;28;20418;-74
2023/08/16 02:46:56;;;;;;;7.90;4.20;;;;;;;20.15;100.00;101839.63;5270675;28;20040;-74
2023/08/16 02:49:27;;;;;;;6.53;4.27;;;;;;;20.11;100.00;101843.59;5263577;28;20024;-75
2023/08/16 02:51:58;;;;;;;6.47;4.50;;;;;;;20.10;100.00;101842.78;5271208;28;20051;-75
2023/08/16 02:54:30;;;;;;;6.10;4.53;;;;;;;20.06;100.00;101840.63;5261921;28;20021;-76
2023/08/16 02:57:01;;;;;;;9.07;5.05;;;;;;;19.90;100.00;101846.81;5262850;28;20029;-74
2023/08/16 02:59:40;;;;;;;9.97;4.93;;;;;;;20.08;100.00;101850.13;5249332;28;20116;-74
2023/08/16 03:02:13;;;;;;;6.93;5.15;;;;;;;19.88;100.00;101856.75;5268220;28;20439;-74
2023/08/16 03:04:44;;;;;;;9.95;5.63;;;;;;;19.89;100.00;101848.63;5257355;28;20029;-75
2023/08/16 03:07:15;;;;;;;8.90;5.03;;;;;;;19.95;100.00;101847.13;5265284;28;20202;-75
2023/08/16 03:09:46;;;;;;;5.97;5.17;;;;;;;19.92;100.00;101847.44;5266819;28;20021;-76
2023/08/16 03:12:18;;;;;;;6.57;5.60;;;;;;;19.90;100.00;101847.63;5264922;28;20033;-74
2023/08/16 03:14:49;;;;;;;7.20;5.30;;;;;;;19.86;100.00;101841.00;5250395;28;20020;-73
2023/08/16 03:17:20;;;;;;;7.50;5.80;;;;;;;19.84;100.00;101858.91;5269332;28;20512;-74
2023/08/16 03:19:52;;;;;;;8.82;5.65;;;;;;;19.90;100.00;101858.28;5265207;28;20108;-74
2023/08/16 03:22:23;;;;;;;6.00;5.18;;;;;;;19.96;100.00;101848.78;5265364;28;20039;-74
2023/08/16 03:24:54;;;;;;;8.43;5.53;;;;;;;19.94;100.00;101848.13;5266520;28;20025;-74
2023/08/16 03:27:25;;;;;;;6.77;5.50;;;;;;;19.97;100.00;101855.78;5271253;28;20089;-74
2023/08/16 03:29:57;;;;;;;7.10;5.47;;;;;;;19.96;100.00;101856.75;5267591;28;20043;-75
2023/08/16 03:32:28;;;;;;;7.57;5.63;;;;;;;19.94;100.00;101850.78;5263452;28;20394;-76
2023/08/16 03:34:59;;;;;;;9.87;6.20;;;;;;;19.95;100.00;101843.63;5267118;28;20517;-74
2023/08/16 03:37:31;;;;;;;8.73;6.47;;;;;;;19.89;100.00;101859.28;5262325;28;20513;-77
2023/08/16 03:40:05;;;;;;;7.50;6.28;;;;;;;19.86;100.00;101856.13;5266712;28;20025;-74
2023/08/16 03:42:37;;;;;;;8.18;6.28;;;;;;;19.82;100.00;101860.09;5262895;28;20036;-73
2023/08/16 03:45:08;;;;;;;9.00;6.60;;;;;;;19.93;100.00;101862.44;5264849;28;20020;-75
2023/08/16 03:47:40;;;;;;;8.32;6.40;;;;;;;19.91;100.00;101864.41;5267872;28;20045;-76
2023/08/16 03:50:11;;;;;;;8.55;6.85;;;;;;;19.92;100.00;101856.25;5264475;28;20040;-74
2023/08/16 03:52:42;;;;;;;8.50;7.17;;;;;;;19.90;100.00;101858.28;5262149;28;20029;-74
2023/08/16 03:55:14;;;;;;;11.97;7.40;;;;;;;19.84;100.00;101868.72;5267999;28;20340;-73
2023/08/16 03:57:45;;;;;;;8.23;6.95;;;;;;;19.78;100.00;101875.56;5266399;28;20575;-75
2023/08/16 04:00:16;;;;;;;10.07;6.43;;;;;;;19.76;100.00;101876.72;5267449;28;20055;-74
2023/08/16 04:02:48;;;;;;;10.50;6.90;;;;;;;19.64;100.00;101865.56;5267643;28;20020;-73
2023/08/16 04:05:21;;;;;;;7.60;6.00;;;;;;;19.71;100.00;101873.72;5260911;28;20032;-74
2023/08/16 04:07:52;;;;;;;9.85;6.72;;;;;;;19.71;100.00;101879.03;5267081;28;20066;-75
2023/08/16 04:10:24;;;;;;;13.93;7.47;;;;;;;19.67;100.00;101874.06;5267351;28;20029;-74
2023/08/16 04:12:55;;;;;;;9.70;7.70;;;;;;;19.59;100.00;101871.34;5269858;28;20067;-75
2023/08/16 04:15:26;;;;;;;7.73;6.93;;;;;;;19.49;100.00;101869.84;5261465;28;20523;-75
2023/08/16 04:17:58;;;;;;;10.70;7.10;;;;;;;19.47;100.00;101885.94;5262758;28;20115;-74
2023/08/16 04:20:29;;;;;;;9.05;6.90;;;;;;;19.41;100.00;101887.44;5266650;28;20040;-73
2023/08/16 04:23:01;;;;;;;9.50;7.63;;;;;;;19.36;100.00;101888.94;5262601;28;20033;-73
2023/08/16 04:25:32;;;;;;;10.60;7.20;;;;;;;19.36;100.00;101895.06;5270646;28;20062;-74
2023/08/16 04:28:03;;;;;;;9.13;7.00;;;;;;;19.38;100.00;101885.09;5265862;28;20025;-74
2023/08/16 04:30:35;;;;;;;8.85;6.05;;;;;;;19.25;100.00;101886.56;5258091;28;20040;-74
2023/08/16 04:33:06;;;;;;;11.27;6.90;;;;;;;19.27;100.00;101873.94;5260553;28;20482;-73
2023/08/16 04:35:37;;;;;;;8.37;6.53;;;;;;;19.37;100.00;101886.09;5268246;28;20071;-73
2023/08/16 04:38:09;;;;;;;6.45;5.75;;;;;;;19.40;100.00;101887.59;5258159;28;20522;-74
2023/08/16 04:40:41;;;;;;;7.97;6.47;;;;;;;19.42;100.00;101873.13;5263593;28;20033;-75
2023/08/16 04:43:12;;;;;;;8.70;6.90;;;;;;;19.37;100.00;101879.94;5270263;28;20028;-74
2023/08/16 04:45:43;;;;;;;8.43;6.93;;;;;;;19.37;100.00;101880.78;5261834;28;20024;-74
2023/08/16 04:48:15;;;;;;;9.80;6.33;;;;;;;19.31;100.00;101880.59;5258950;28;20037;-74
2023/08/16 04:50:46;;;;;;;9.95;6.97;;;;;;;19.29;100.00;101874.63;5269363;28;20511;-74
2023/08/16 04:53:17;;;;;;;9.63;6.55;;;;;;;19.30;100.00;101886.91;5264254;28;20528;-75
2023/08/16 04:55:48;;;;;;;8.70;7.47;;;;;;;19.32;100.00;101880.44;5237705;28;20036;-74
2023/08/16 04:58:20;;;;;;;8.57;7.75;;;;;;;19.32;100.00;101882.25;5268591;28;20036;-74
2023/08/16 05:00:51;;;;;;;8.77;7.53;;;;;;;19.28;100.00;101886.22;5269931;28;20090;-74
2023/08/16 05:03:22;;;;;;;10.48;7.40;;;;;;;19.28;100.00;101896.84;5259627;28;20029;-77
2023/08/16 05:06:01;;;;;;;12.02;8.45;;;;;;;19.34;100.00;101886.41;5264945;28;20021;-74
2023/08/16 05:08:33;;;;;;;8.95;6.88;;;;;;;19.11;100.00;101894.16;5266940;28;20106;-75
2023/08/16 05:11:04;;;;;;;8.85;7.40;;;;;;;19.15;100.00;101884.88;5258651;28;20052;-74
2023/08/16 05:13:35;;;;;;;9.15;7.03;;;;;;;19.18;100.00;101895.16;5264914;28;20032;-74
2023/08/16 05:16:06;;;;;;;10.38;7.18;;;;;;;19.07;100.00;101903.44;5262701;28;20025;-74
2023/08/16 05:18:38;;;;;;;7.60;6.90;;;;;;;19.05;100.00;101902.75;5257399;28;20028;-73
2023/08/16 05:21:09;;;;;;;9.05;7.88;;;;;;;19.07;100.00;101903.44;5268187;28;20036;-74
2023/08/16 05:23:40;;;;;;;8.23;7.15;;;;;;;19.08;100.00;101910.41;5263524;28;20052;-73
2023/08/16 05:26:12;;;;;;;9.60;6.90;;;;;;;19.10;100.00;101912.91;5261655;28;20032;-74
2023/08/16 05:28:43;;;;;;;7.10;6.40;;;;;;;19.08;100.00;101906.91;5255292;28;20074;-73
2023/08/16 05:31:15;;;;;;;7.03;6.22;;;;;;;19.14;100.00;101914.25;5262568;28;20031;-73
2023/08/16 05:33:46;;;;;;;6.95;6.28;;;;;;;19.15;100.00;101913.25;5263922;28;20052;-74
2023/08/16 05:36:17;;;;;;;9.48;6.05;;;;;;;19.15;100.00;101919.41;5261342;28;20181;-75
2023/08/16 05:38:49;;;;;;;9.23;5.90;;;;;;;19.22;100.00;101916.94;5259647;28;20414;-74
2023/08/16 05:41:20;;;;;;;7.33;6.63;;;;;;;19.29;100.00;101917.13;5260974;28;20123;-74
2023/08/16 05:43:51;;;;;;;6.53;5.73;;;;;;;19.33;100.00;101914.00;5261223;28;20025;-74
2023/08/16 05:46:22;;;;;;;8.35;6.05;;;;;;;19.28;100.00;101915.44;5263093;28;20097;-74
2023/08/16 05:48:54;;;;;;;11.63;6.33;;;;;;;19.37;100.00;101930.44;5259161;28;20056;-73
2023/08/16 05:51:25;;;;;;;9.07;5.90;;;;;;;19.30;100.00;101924.09;5256717;28;20025;-74
2023/08/16 05:53:56;;;;;;;6.70;5.25;;;;;;;19.40;100.00;101930.13;5263209;28;20028;-75
2023/08/16 05:56:28;;;;;;;6.77;5.50;;;;;;;19.40;100.00;101935.44;5241365;28;20535;-74
2023/08/16 05:58:59;;;;;;;6.13;5.40;;;;;;;19.40;100.00;101944.25;5240584;28;20454;-74
2023/08/16 06:01:30;;;;;;;6.10;5.40;;;;;;;19.48;100.00;101940.78;5239961;28;20029;-74
2023/08/16 06:04:02;;;;;;;6.67;5.40;;;;;;;19.51;100.00;101943.13;5237137;28;20039;-75
2023/08/16 06:06:33;;;;;;;5.55;4.88;;;;;;;19.52;100.00;101943.94;5255725;28;20111;-76
2023/08/16 06:09:05;;;;;;;6.18;5.32;;;;;;;19.58;100.00;101938.78;5261985;28;20038;-74
2023/08/16 06:11:36;;;;;;;7.23;6.30;;;;;;;19.62;100.00;101934.88;5259333;28;20446;-74
2023/08/16 06:14:07;;;;;;;7.85;5.43;;;;;;;19.71;100.00;101933.06;5262176;28;20037;-74
2023/08/16 06:16:39;;;;;;;8.52;5.95;;;;;;;19.71;100.00;101932.22;5264978;28;20024;-74
2023/08/16 06:19:10;;;;;;;6.78;5.78;;;;;;;19.80;100.00;101920.59;5264276;28;20032;-76
2023/08/16 06:21:42;;;;;;;7.53;5.45;;;;;;;19.86;100.00;101930.56;5262211;28;21080;-73
2023/08/16 06:24:13;;;;;;;6.00;5.40;;;;;;;19.91;100.00;101934.38;5261996;28;20576;-77
2023/08/16 06:26:44;;;;;;;8.93;5.40;;;;;;;19.90;100.00;101938.06;5259114;28;20076;-74
2023/08/16 06:29:15;;;;;;;6.63;5.35;;;;;;;19.93;100.00;101931.59;5248738;28;20032;-75
2023/08/16 06:31:48;;;;;;;7.38;5.30;;;;;;;20.06;100.00;101933.75;5257530;28;20020;-76
2023/08/16 06:34:19;;;;;;;8.73;5.55;;;;;;;20.21;100.00;101932.06;5259322;28;20567;-74
2023/08/16 06:36:50;;;;;;;7.67;5.40;;;;;;;20.31;100.00;101939.91;5248272;28;20111;-74
2023/08/16 06:39:22;;;;;;;6.93;5.80;;;;;;;20.38;100.00;101927.56;5250279;28;20047;-74
2023/08/16 06:41:53;;;;;;;9.97;5.17;;;;;;;20.49;100.00;101937.91;5260075;28;20394;-76
2023/08/16 06:44:24;;;;;;;6.80;5.43;;;;;;;20.63;100.00;101933.72;5260270;28;20423;-76
2023/08/16 06:46:56;;;;;;;9.57;5.40;;;;;;;20.60;100.00;101931.41;5255288;28;20124;-74
2023/08/16 06:49:27;;;;;;;10.15;5.05;;;;;;;20.68;100.00;101930.53;5255056;28;20032;-74
2023/08/16 06:51:58;;;;;;;6.10;5.03;;;;;;;20.73;100.00;101921.06;5258479;28;20041;-74
2023/08/16 06:54:30;;;;;;;6.83;4.70;;;;;;;20.79;100.00;101932.84;5252440;28;20047;-77
2023/08/16 06:57:01;;;;;;;5.50;4.30;;;;;;;20.79;100.00;101935.50;5264736;28;20073;-74
2023/08/16 06:59:32;;;;;;;6.07;4.50;;;;;;;20.94;100.00;101947.13;5262919;28;20098;-77
2023/08/16 07:02:04;;;;;;;7.00;4.10;;;;;;;20.95;100.00;101958.59;5235472;28;20102;-73
2023/08/16 07:04:35;;;;;;;5.67;4.40;;;;;;;20.90;100.00;101959.13;5261518;28;20036;-74
2023/08/16 07:07:07;;;;;;;5.83;3.90;;;;;;;20.97;100.00;101954.78;5248147;28;20063;-74
2023/08/16 07:09:38;;;;;;;5.43;3.63;;;;;;;20.97;100.00;101946.78;5253994;28;20128;-75
2023/08/16 07:12:10;;;;;;;5.63;4.37;;;;;;;21.09;100.00;101956.06;5264013;28;20032;-75
2023/08/16 07:14:41;;;;;;;6.23;4.30;;;;;;;20.99;100.00;101934.13;5255129;28;20098;-76
2023/08/16 07:17:12;;;;;;;5.43;4.00;;;;;;;21.16;100.00;101945.53;5259274;28;20054;-74
2023/08/16 07:19:47;;;;;;;6.03;3.90;;;;;;;21.32;100.00;101941.97;5260341;28;20039;-74
2023/08/16 07:22:20;;;;;;;7.13;4.38;;;;;;;21.39;100.00;101940.31;5256773;28;20375;-74
2023/08/16 07:24:51;;;;;;;6.47;4.22;;;;;;;21.38;100.00;101944.81;5256509;28;20026;-75
2023/08/16 07:27:23;;;;;;;7.10;4.27;;;;;;;21.66;100.00;101962.16;5259034;28;20044;-76
2023/08/16 07:29:55;;;;;;;6.43;4.07;;;;;;;21.75;100.00;101963.78;5254979;28;20032;-74
2023/08/16 07:32:26;;;;;;;5.27;3.90;;;;;;;21.84;100.00;101963.53;5261763;28;20510;-74
2023/08/16 07:34:57;;;;;;;8.17;4.17;;;;;;;21.92;100.00;101962.66;5263923;28;20490;-74
2023/08/16 07:37:31;;;;;;;5.87;4.13;;;;;;;21.97;100.00;101954.09;5240985;28;20024;-74
2023/08/16 07:40:05;;;;;;;5.72;4.13;;;;;;;22.09;100.00;101960.72;5264167;28;20082;-75
2023/08/16 07:42:36;;;;;;;5.75;3.55;;;;;;;22.39;100.00;101955.44;5265655;28;20567;-74
2023/08/16 07:45:08;;;;;;;8.60;3.40;;;;;;;22.43;100.00;101965.63;5265800;28;20040;-75
2023/08/16 07:47:39;;;;;;;6.90;3.50;;;;;;;22.47;100.00;101958.91;5252452;28;20065;-75
2023/08/16 07:50:10;;;;;;;6.23;3.13;;;;;;;22.47;100.00;101969.59;5257909;28;20036;-74
2023/08/16 07:52:41;;;;;;;4.87;2.83;;;;;;;22.69;100.00;101973.22;5254046;28;20502;-74
2023/08/16 07:55:13;;;;;;;3.73;2.90;;;;;;;22.86;100.00;101962.34;5257429;28;20844;-73
2023/08/16 07:57:44;;;;;;;8.10;3.73;;;;;;;22.86;100.00;101965.00;5265907;28;20500;-77
2023/08/16 08:00:17;;;;;;;4.90;3.53;;;;;;;23.00;100.00;101959.72;5254447;28;20572;-75
2023/08/16 08:02:49;;;;;;;6.18;3.30;;;;;;;23.12;100.00;101976.09;5257193;28;20481;-74
2023/08/16 08:05:21;;;;;;;4.17;2.60;;;;;;;23.10;99.38;101975.44;5260097;28;20032;-74
2023/08/16 08:07:53;;;;;;;4.37;2.87;;;;;;;23.17;96.18;101978.22;5259277;28;20294;-74
2023/08/16 08:10:25;;;;;;;5.30;2.25;;;;;;;23.38;90.21;101975.63;5259963;28;20028;-74
2023/08/16 08:12:56;;;;;;;6.43;1.93;;;;;;;23.45;85.01;101978.34;5258090;28;20051;-74
2023/08/16 08:15:28;;;;;;;4.10;1.67;;;;;;;23.51;85.40;101981.09;5264981;28;20036;-74
2023/08/16 08:17:59;;;;;;;4.47;1.80;;;;;;;23.55;80.82;101989.59;5257238;28;20543;-74
2023/08/16 08:20:31;;;;;;;4.80;2.00;;;;;;;23.51;79.73;101989.13;5261380;28;20116;-73
2023/08/16 08:23:02;;;;;;;6.33;1.73;;;;;;;23.73;82.89;101981.19;5260407;28;20529;-76
2023/08/16 08:25:34;;;;;;;3.67;1.80;;;;;;;23.87;80.43;101980.31;5264804;28;20060;-75
2023/08/16 08:28:06;;;;;;;6.07;1.80;;;;;;;23.86;79.22;101983.16;5263192;28;20091;-74
2023/08/16 08:30:38;;;;;;;;;;;;;;;24.70;78.84;101977.91;5263999;28;20118;-73
2023/08/16 08:33:09;;;;;;;5.03;1.80;;;;;;;23.94;74.62;101981.22;5261478;28;19920;-78
2023/08/16 08:35:40;;;;;;;4.67;1.73;;;;;;;24.22;74.79;101983.09;5257559;28;20028;-78
2023/08/16 08:38:12;;;;;;;4.97;1.67;;;;;;;24.31;77.05;101989.97;5238472;28;20360;-75
2023/08/16 08:40:43;;;;;;;6.40;2.23;;;;;;;24.31;77.20;101981.94;5258949;28;20032;-74
2023/08/16 08:43:18;;;;;;;6.60;2.33;;;;;;;24.16;73.32;101995.41;5257105;28;20401;-77
2023/08/16 08:45:51;;;;;;;3.50;1.67;;;;;;;23.97;73.06;101988.00;5241047;28;20036;-78
2023/08/16 08:48:23;;;;;;;4.10;1.77;;;;;;;24.07;77.05;101985.03;5256792;28;20494;-74
2023/08/16 08:50:55;;;;;;;4.22;2.28;;;;;;;24.05;76.43;102001.25;5256952;28;20040;-74
2023/08/16 08:53:27;;;;;;;4.43;1.67;;;;;;;24.07;76.32;101999.25;5257887;28;20021;-74
2023/08/16 08:56:07;;;;;;;8.27;2.17;;;;;;;24.11;74.20;101994.31;5263070;28;20056;-76
2023/08/16 08:58:40;;;;;;;5.32;1.80;;;;;;;24.07;73.91;102001.09;5263996;28;20518;-74
2023/08/16 09:01:13;;;;;;;4.30;1.90;;;;;;;24.06;72.81;102004.78;5265036;28;20032;-78
2023/08/16 09:03:46;;;;;;;3.60;1.65;;;;;;;24.11;75.31;101997.00;5239735;28;20063;-74
2023/08/16 09:06:18;;;;;;;9.95;2.33;;;;;;;24.17;75.36;101997.06;5258671;28;20041;-76
2023/08/16 09:08:50;;;;;;;4.60;1.90;;;;;;;24.26;73.50;101995.09;5240411;28;20528;-74
2023/08/16 09:11:22;;;;;;;4.33;1.73;;;;;;;24.43;72.12;101996.47;5257015;28;20287;-75
2023/08/16 09:13:54;;;;;;;5.95;1.80;;;;;;;24.33;74.92;101992.47;5259582;28;20024;-73
2023/08/16 09:16:26;;;;;;;6.15;2.17;;;;;;;24.54;69.66;102007.69;5259325;28;20029;-74
2023/08/16 09:18:57;;;;;;;4.43;2.00;;;;;;;24.72;68.10;102011.56;5255949;28;20398;-74
2023/08/16 09:21:29;;;;;;;4.40;1.90;;;;;;;24.70;71.58;102007.41;5255599;28;20028;-79
2023/08/16 09:24:01;;;;;;;3.47;1.73;;;;;;;24.62;66.03;102004.88;5261952;28;20029;-76
2023/08/16 09:26:36;;;;;;;5.10;1.80;;;;;;;24.87;68.76;101994.53;5258141;28;20032;-74
2023/08/16 09:29:08;;;;;;;4.28;2.15;;;;;;;24.73;70.20;102007.84;5257709;28;20037;-78
2023/08/16 09:31:41;;;;;;;4.45;1.92;;;;;;;24.83;70.97;102002.16;5254785;28;20040;-75
2023/08/16 09:34:15;;;;;;;4.85;2.05;;;;;;;24.64;67.63;102000.97;5258076;28;20036;-74
2023/08/16 09:36:49;;;;;;;3.97;1.88;;;;;;;24.78;68.77;101995.72;5252251;28;20101;-74
2023/08/16 09:39:25;;;;;;;4.32;2.20;;;;;;;24.95;69.90;102000.56;5252315;28;20028;-75
2023/08/16 09:41:57;;;;;;;7.15;2.47;;;;;;;24.79;70.55;102005.41;5257160;28;20498;-75
2023/08/16 09:44:29;;;;;;;3.47;2.05;;;;;;;24.94;70.48;101998.91;5256527;28;20040;-74
2023/08/16 09:47:11;;;;;;;4.97;2.72;;;;;;;25.17;71.95;101993.28;5254712;28;20171;-74
2023/08/16 09:49:44;;;;;;;6.93;2.60;;;;;;;25.23;71.70;101992.50;5257602;28;20562;-75
2023/08/16 09:52:16;;;;;;;5.18;2.08;;;;;;;25.18;72.08;101983.38;5254135;28;20600;-76
2023/08/16 09:54:49;;;;;;;5.27;2.67;;;;;;;25.43;70.01;101997.94;5253048;28;20020;-77
2023/08/16 09:57:21;;;;;;;4.43;2.65;;;;;;;25.37;65.66;101993.38;5257532;28;20024;-74
2023/08/16 09:59:54;;;;;;;4.28;2.28;;;;;;;25.44;68.48;101993.41;5254549;28;20025;-76
2023/08/16 10:02:26;;;;;;;4.35;2.30;;;;;;;25.36;67.90;101999.78;5257778;28;20055;-76
2023/08/16 10:04:58;;;;;;;5.60;2.30;;;;;;;25.49;70.94;101993.63;5256815;28;20553;-74
2023/08/16 10:07:29;;;;;;;5.37;2.63;;;;;;;25.56;69.00;101985.59;5254481;28;20135;-75
2023/08/16 10:10:01;;;;;;;4.90;2.87;;;;;;;25.53;67.96;101991.38;5255695;28;20040;-75
2023/08/16 10:12:34;;;;;;;5.53;2.65;;;;;;;25.45;69.43;101987.81;5259368;28;20506;-78
2023/08/16 10:15:07;;;;;;;4.13;2.17;;;;;;;25.41;68.61;101977.72;5241362;28;20440;-78
2023/08/16 10:17:40;;;;;;;5.68;2.60;;;;;;;25.42;71.21;101988.25;5259229;28;20031;-74
2023/08/16 10:20:25;;;;;;;4.95;2.55;;;;;;;25.58;68.55;101992.44;5258171;28;20041;-75
2023/08/16 10:23:01;;;;;;;5.75;2.67;;;;;;;25.43;69.91;101987.22;5259985;28;20600;-75
2023/08/16 10:25:38;;;;;;;5.15;2.95;;;;;;;25.40;72.35;101982.25;5266157;28;20068;-76
2023/08/16 10:28:09;;;;;;;8.27;3.50;;;;;;;25.31;71.64;101991.50;5255716;28;20025;-77
2023/08/16 10:30:45;;;;;;;6.93;3.10;;;;;;;25.54;69.17;101998.41;5263535;28;20102;-75
2023/08/16 10:33:21;;;;;;;6.75;2.92;;;;;;;25.50;72.03;101987.25;5259222;28;20493;-75
2023/08/16 10:35:53;;;;;;;3.55;2.30;;;;;;;25.63;72.21;101989.13;5259591;28;20033;-75
2023/08/16 10:38:34;;;;;;;7.57;2.90;;;;;;;25.78;70.28;101986.28;5258937;28;20032;-77
2023/08/16 10:41:13;;;;;;;6.05;2.97;;;;;;;25.71;68.92;101989.78;5258698;28;20075;-75
2023/08/16 10:43:46;;;;;;;5.55;3.35;;;;;;;25.64;67.48;101985.41;5257637;28;20584;-76
2023/08/16 10:46:34;;;;;;;5.03;2.97;;;;;;;25.94;68.73;101977.88;5255065;28;20478;-76
2023/08/16 10:49:06;;;;;;;6.13;3.17;;;;;;;25.63;66.18;101986.44;5259374;28;20520;-75
2023/08/16 10:51:50;;;;;;;5.90;3.10;;;;;;;25.92;68.04;101983.47;5260271;28;20033;-75
2023/08/16 10:54:33;;;;;;;5.30;3.20;;;;;;;25.83;68.23;101973.94;5255077;28;20436;-79
2023/08/16 10:57:05;;;;;;;6.63;3.45;;;;;;;25.92;68.64;101977.25;5260266;28;20033;-75
2023/08/16 10:59:38;;;;;;;5.13;2.95;;;;;;;25.78;66.62;101987.13;5262704;28;20900;-76
2023/08/16 11:02:14;;;;;;;7.13;2.70;;;;;;;25.80;65.80;101982.41;5257561;28;20650;-75
2023/08/16 11:04:46;;;;;;;5.72;3.20;;;;;;;25.84;68.99;101977.47;5258341;28;20028;-75
2023/08/16 11:07:17;;;;;;;5.17;3.00;;;;;;;25.87;65.31;101977.84;5262732;28;20390;-74
2023/08/16 11:09:49;;;;;;;7.10;3.40;;;;;;;25.90;64.80;101976.63;5262078;28;20047;-78
2023/08/16 11:12:20;;;;;;;8.37;3.43;;;;;;;25.91;67.03;101989.00;5263935;28;20029;-76
2023/08/16 11:14:51;;;;;;;8.07;2.70;;;;;;;26.32;65.31;101982.66;5263783;28;20115;-74
2023/08/16 11:17:26;;;;;;;5.30;2.60;;;;;;;26.39;64.73;101984.28;5264129;28;20024;-77
2023/08/16 11:20:00;;;;;;;5.63;2.70;;;;;;;26.38;65.61;101979.97;5263527;28;20103;-75
2023/08/16 11:22:31;;;;;;;7.05;3.45;;;;;;;26.42;62.83;101978.50;5256929;28;20116;-77
2023/08/16 11:25:03;;;;;;;5.10;3.10;;;;;;;26.42;63.73;101977.69;5263953;28;20028;-77
2023/08/16 11:27:36;;;;;;;6.00;2.57;;;;;;;26.57;63.30;101982.88;5268041;28;20021;-75
2023/08/16 11:30:08;;;;;;;3.40;2.08;;;;;;;26.68;65.51;101974.19;5259467;28;20029;-75
2023/08/16 11:32:40;;;;;;;8.37;2.67;;;;;;;26.48;63.72;101947.34;5262167;28;20033;-75
2023/08/16 11:35:11;;;;;;;6.78;3.22;;;;;;;26.93;64.27;101964.41;5261485;28;20509;-78
2023/08/16 11:37:43;;;;;;;4.37;2.83;;;;;;;26.98;64.98;101977.22;5257003;28;20021;-77
2023/08/16 11:40:14;;;;;;;6.90;3.20;;;;;;;27.02;62.42;101961.47;5261014;28;20041;-75
2023/08/16 11:42:45;;;;;;;5.73;2.80;;;;;;;26.97;65.95;101967.47;5265763;28;20028;-75